ESPA/LLA METAR and TAF weather

Enter ICAO airport designator
Station Type Date Time Source
ESPA METAR 2021/09/23 16:50 UTC NOAA

ESPA 231650Z 13017KT 9999 -RA FEW014 BKN030 08/06 Q0995


Station Type Date Time Source
ESPA Decoded METAR 2021/09/23 16:50 UTC NOAA

Lulea / Kallax, Sweden (ESPA) 65-33N 022-08E 34M
Sep 23, 2021 - 12:50 PM EDT / 2021.09.23 1650 UTC
Wind: from the SE (130 degrees) at 20 MPH (17 KT):0
Visibility: greater than 7 mile(s):0
Sky conditions: mostly cloudy
Weather: light rain
Temperature: 46 F (8 C)
Dew Point: 42 F (6 C)
Relative Humidity: 87%
Pressure (altimeter): 29.38 in. Hg (0995 hPa)
ob: ESPA 231650Z 13017KT 9999 -RA FEW014 BKN030 08/06 Q0995
cycle: 17

Station Type Date Time Source
ESPA TAF 2019/02/04 06:27 UTC NOAA

TAF TAF ESPA 040820Z 0406/0418 01010KT 2000 SN VV020
TEMPO 0409/0414 1000 +SN DRSN VV009
BECMG 0414/0416 32010KT 5000 -SN VV030
RMK MIL

Example: see airport list